Wildwood, NJ

12:08 PM EDT on July 24, 2017 (GMT -0400)
Cape May County

Weather History for KWWD - January, 2013

Change the Weather History Date:

Thursday, January 3, 2013

  Actual Average Record
Temperature  
Mean Temperature 30 °F -  
Max Temperature 35 °F 42 °F 66 °F (2000)
Min Temperature 26 °F 30 °F 12 °F (2014)
Degree Days  
Heating Degree Days 34    
Moisture  
Dew Point 17 °F    
Average Humidity 57    
Maximum Humidity 65    
Minimum Humidity 44    
Precipitation  
Precipitation 0.00 in - - ()
Sea Level Pressure  
Sea Level Pressure 30.19 in    
Wind  
Wind Speed 7 mph (WNW)    
Max Wind Speed 13 mph    
Max Gust Speed 18 mph    
Visibility 10 miles    
Events      
Averages and records for this station are not official NWS values.
T = Trace of Precipitation, MM = Missing Value Source: NWS Daily Summary

Daily Weather History Graph

Daily Weather History Graph

Search for Another Location

Airport or City:

Trip Planner

Search our weather history database for the weather conditions in past years. The results will help you decide how hot, cold, wet, or windy it might be!

Date:

Astronomy

Jan. 03, 2013 Rise Set
Actual Time 7:18 AM EST 4:49 PM EST
Civil Twilight 6:49 AM EST 5:19 PM EST
Nautical Twilight 6:15 AM EST 5:53 PM EST
Astronomical Twilight 5:43 AM EST 6:25 PM EST
Moon 11:19 PM EST (1/3) 10:32 AM EST (1/3)
Length of Visible Light 10h 30m
Length of Day
9h 31m
Waning Gibbous, 65% of the Moon is Illuminated
Jan 3
Waning Gibbous
Jan 4
Last Quarter
Jan 11
New
Jan 18
First Quarter
Jan 26
Full

Hourly Weather History & Observations

Time (EST) Temp. Windchill Dew Point Humidity Pressure Visibility Wind Dir Wind Speed Gust Speed Precip Events Conditions
12:15 AM 30.2 °F 24.3 °F 15.8 °F 55% 30.20 in 10.0 mi NNW 5.8 mph - N/A   Clear
12:35 AM 30.2 °F 23.4 °F 15.8 °F 55% 30.21 in 10.0 mi NNW 6.9 mph - N/A   Clear
12:55 AM 30.2 °F 21.9 °F 15.8 °F 55% 30.21 in 10.0 mi NNW 9.2 mph - N/A   Clear
1:15 AM 30.2 °F 25.4 °F 15.8 °F 55% 30.21 in 10.0 mi North 4.6 mph - N/A   Clear
1:35 AM 30.2 °F 22.6 °F 15.8 °F 55% 30.21 in 10.0 mi North 8.1 mph - N/A   Clear
1:55 AM 30.2 °F 22.6 °F 15.8 °F 55% 30.21 in 10.0 mi North 8.1 mph - N/A   Clear
2:15 AM 30.2 °F 24.3 °F 15.8 °F 55% 30.22 in 10.0 mi North 5.8 mph - N/A   Clear
2:35 AM 30.2 °F 23.4 °F 15.8 °F 55% 30.23 in 10.0 mi North 6.9 mph - N/A   Clear
2:55 AM 28.4 °F 24.6 °F 15.8 °F 59% 30.23 in 10.0 mi North 3.5 mph - N/A   Clear
3:15 AM 28.4 °F 23.3 °F 15.8 °F 59% 30.22 in 10.0 mi North 4.6 mph - N/A   Clear
3:35 AM 28.4 °F 23.3 °F 15.8 °F 59% 30.22 in 10.0 mi North 4.6 mph - N/A   Clear
3:55 AM 28.4 °F 22.2 °F 15.8 °F 59% 30.22 in 10.0 mi North 5.8 mph - N/A   Clear
4:15 AM 28.4 °F 24.6 °F 15.8 °F 59% 30.21 in - North 3.5 mph - N/A   Clear
4:35 AM 28.4 °F 24.6 °F 15.8 °F 59% 30.20 in - North 3.5 mph - N/A   Clear
4:55 AM 28.4 °F 24.6 °F 15.8 °F 59% 30.20 in - NNW 3.5 mph - N/A   Clear
5:15 AM 28.4 °F 24.6 °F 15.8 °F 59% 30.20 in - North 3.5 mph - N/A   Clear
5:35 AM 28.4 °F 24.6 °F 15.8 °F 59% 30.20 in - NNW 3.5 mph - N/A   Clear
5:55 AM 26.6 °F - 15.8 °F 64% 30.20 in - Calm Calm - N/A   Clear
6:15 AM 26.6 °F 22.6 °F 15.8 °F 64% 30.21 in - NNW 3.5 mph - N/A   Clear
6:35 AM 26.6 °F 22.6 °F 15.8 °F 64% 30.21 in - NNW 3.5 mph - N/A   Clear
6:55 AM 26.6 °F - 15.8 °F 64% 30.21 in - Calm Calm - N/A   Clear
7:15 AM 26.6 °F 22.6 °F 15.8 °F 64% 30.23 in - NNW 3.5 mph - N/A   Clear
7:35 AM 26.6 °F 22.6 °F 15.8 °F 64% 30.23 in - NNW 3.5 mph - N/A   Clear
7:55 AM 26.6 °F 22.6 °F 15.8 °F 64% 30.23 in - NW 3.5 mph - N/A   Clear
8:35 AM 28.4 °F - 17.6 °F 64% 30.24 in - Calm Calm - N/A   Clear
8:55 AM 28.4 °F 23.3 °F 17.6 °F 64% 30.24 in - NNW 4.6 mph - N/A   Clear
9:15 AM 30.2 °F 25.4 °F 17.6 °F 60% 30.24 in - North 4.6 mph - N/A   Clear
9:35 AM 30.2 °F 23.4 °F 17.6 °F 60% 30.24 in 10.0 mi NNW 6.9 mph - N/A   Clear
9:55 AM 30.2 °F 25.4 °F 17.6 °F 60% 30.24 in 10.0 mi NW 4.6 mph - N/A   Clear
10:15 AM 30.2 °F 24.3 °F 17.6 °F 60% 30.24 in 10.0 mi WNW 5.8 mph - N/A   Clear
10:35 AM 32.0 °F 24.2 °F 19.4 °F 60% 30.23 in 10.0 mi West 9.2 mph - N/A   Clear
10:55 AM 32.0 °F 24.8 °F 19.4 °F 60% 30.22 in 10.0 mi WNW 8.1 mph - N/A   Clear
11:35 AM 33.8 °F 24.8 °F 17.6 °F 52% 30.21 in 10.0 mi West 12.7 mph 16.1 mph N/A   Clear
11:55 AM 32.0 °F 24.2 °F 15.8 °F 51% 30.20 in 10.0 mi WNW 9.2 mph - N/A   Clear
12:15 PM 33.8 °F 26.4 °F 14.0 °F 44% 30.19 in 10.0 mi WNW 9.2 mph - N/A   Clear
12:35 PM 32.0 °F 22.5 °F 14.0 °F 48% 30.18 in 10.0 mi WNW 12.7 mph 17.3 mph N/A   Clear
12:55 PM 33.8 °F 25.8 °F 15.8 °F 48% 30.17 in 10.0 mi WNW 10.4 mph 17.3 mph N/A   Clear
1:15 PM 32.0 °F 23.6 °F 15.8 °F 51% 30.16 in 10.0 mi WNW 10.4 mph 16.1 mph N/A   Clear
1:35 PM 33.8 °F 24.8 °F 15.8 °F 48% 30.16 in 10.0 mi West 12.7 mph 17.3 mph N/A   Clear
1:55 PM 33.8 °F 27.0 °F 17.6 °F 52% 30.15 in 10.0 mi WNW 8.1 mph 18.4 mph N/A   Clear
2:15 PM 33.8 °F 26.4 °F 17.6 °F 52% 30.15 in 10.0 mi WNW 9.2 mph - N/A   Clear
2:35 PM 33.8 °F 25.8 °F 17.6 °F 52% 30.15 in 10.0 mi WNW 10.4 mph 16.1 mph N/A   Clear
2:55 PM 33.8 °F 26.4 °F 15.8 °F 48% 30.14 in 10.0 mi WNW 9.2 mph - N/A   Clear
3:15 PM 33.8 °F 25.3 °F 17.6 °F 52% 30.15 in 10.0 mi West 11.5 mph 17.3 mph N/A   Clear
3:35 PM 33.8 °F 25.3 °F 17.6 °F 52% 30.15 in 10.0 mi West 11.5 mph - N/A   Clear
3:55 PM 33.8 °F 25.8 °F 17.6 °F 52% 30.15 in 10.0 mi West 10.4 mph 17.3 mph N/A   Clear
4:15 PM 33.8 °F 25.8 °F 17.6 °F 52% 30.15 in 10.0 mi West 10.4 mph - N/A   Clear
4:35 PM 33.8 °F 25.8 °F 17.6 °F 52% 30.16 in 10.0 mi West 10.4 mph - N/A   Clear
4:55 PM 33.8 °F 27.0 °F 17.6 °F 52% 30.16 in 10.0 mi West 8.1 mph - N/A   Clear
5:15 PM 33.8 °F 26.4 °F 17.6 °F 52% 30.17 in 10.0 mi West 9.2 mph - N/A   Clear
5:35 PM 33.8 °F 25.8 °F 17.6 °F 52% 30.17 in 10.0 mi West 10.4 mph - N/A   Clear
5:55 PM 33.8 °F 25.8 °F 17.6 °F 52% 30.18 in 10.0 mi West 10.4 mph - N/A   Clear
6:15 PM 32.0 °F 24.8 °F 17.6 °F 55% 30.18 in 10.0 mi West 8.1 mph - N/A   Clear
6:35 PM 33.8 °F 26.4 °F 17.6 °F 52% 30.18 in 10.0 mi West 9.2 mph - N/A   Clear
6:55 PM 33.8 °F 25.3 °F 17.6 °F 52% 30.18 in 10.0 mi WSW 11.5 mph - N/A   Clear
7:15 PM 33.8 °F 25.3 °F 17.6 °F 52% 30.18 in 10.0 mi WSW 11.5 mph - N/A   Clear
7:35 PM 33.8 °F 26.4 °F 19.4 °F 56% 30.18 in 10.0 mi West 9.2 mph - N/A   Clear
7:55 PM 33.8 °F 26.4 °F 19.4 °F 56% 30.18 in 10.0 mi West 9.2 mph - N/A   Clear
8:15 PM 33.8 °F 26.4 °F 19.4 °F 56% 30.18 in 10.0 mi West 9.2 mph - N/A   Clear
8:35 PM 33.8 °F 26.4 °F 21.2 °F 60% 30.18 in 10.0 mi WSW 9.2 mph - N/A   Clear
8:55 PM 33.8 °F 26.4 °F 21.2 °F 60% 30.18 in 10.0 mi WSW 9.2 mph 16.1 mph N/A   Clear
9:15 PM 33.8 °F 26.4 °F 21.2 °F 60% 30.17 in 10.0 mi WSW 9.2 mph - N/A   Clear
9:35 PM 33.8 °F 26.4 °F 21.2 °F 60% 30.17 in 10.0 mi WSW 9.2 mph - N/A   Clear
9:55 PM 33.8 °F 25.8 °F 21.2 °F 60% 30.17 in 10.0 mi WSW 10.4 mph - N/A   Clear
10:15 PM 33.8 °F 25.8 °F 21.2 °F 60% 30.17 in 10.0 mi WSW 10.4 mph - N/A   Clear
10:35 PM 33.8 °F 26.4 °F 21.2 °F 60% 30.18 in 10.0 mi WSW 9.2 mph - N/A   Clear
10:55 PM 33.8 °F 27.0 °F 21.2 °F 60% 30.17 in 10.0 mi WSW 8.1 mph - N/A   Clear
11:15 PM 33.8 °F 27.0 °F 23.0 °F 65% 30.18 in 10.0 mi WSW 8.1 mph - N/A   Clear
11:35 PM 35.6 °F 28.6 °F 23.0 °F 60% 30.17 in 10.0 mi WSW 9.2 mph - N/A   Clear
11:55 PM 35.6 °F 27.5 °F 21.2 °F 56% 30.17 in 10.0 mi West 11.5 mph 18.4 mph N/A   Clear